Decoded Metar for LFLP (ANNECY in FRANCE) (IATA:NCY) | Meteo·Mobile Aviation Weather
aviador You're here:

LFLP Decoded Metar

ANNECY in FRANCE
Report Time2018-10-17 05:00:00
UTC Time2018-10-17 05:10:16
Flight Rules vfr VFR
WindVRB at 02 kt
Visibility9999 m
Phenomena:N/A
Clouds:N/A
Expected CloudBase > 800 ft AGL from Temp-Dew spread
CeilingNone
Temp08°C (ISA -4)
Dew Point06°C (87% RH)
AAT6.4°C
QNH1019 hPa
Density Alt971 ft
Elevation1,519 ft
Report Wrong Elevation
Raw Report
METAR LFLP 170500Z AUTO VRB02KT CAVOK 08/06 Q1019 NOSIG=

Extra information for LFLP:More info

Metar Taf Metar & Taf Last 4 Metars F.Rules Stats Wind Profile Meteogram Temp Stats Airport Information Weather charts Add Link Nearby VenuesMetar ALERT Operation Metar Decoded Social comments